Latest Weather Observations for Gabo Island

IDN60801

Issued at 7:35 pm EDT Tuesday 21 October 2014 (issued every 30 minutes, with the page automatically refreshed every 10 minutes)

About weather observations | Map of weather stations | Latest weather observations for NSW | Other Formats
Station Details ID: 084016 Name: GABO ISLAND LIGHTHOUSE Lat: -37.57 Lon: 149.92 Height: 15.2 m
Data from the previous 72 hours. | See also: Recent months at Gabo Island
Date/Time
EDT
Temp
°C
App
Temp
°C
Dew
Point
Rel
Hum
%
Delta-T
°C
Wind Press
QNH
hPa
Press
MSL
hPa
Rain
since 9 am
mm
Dir
 
Spd
km/h
Gust
km/h
Spd
kts
Gust
kts
21/07:30pm 15.2 5.8 10.0 71 2.7 NE 50 61 27 33 1028.4 - 0.0
21/07:00pm 15.3 6.2 9.7 69 2.9 NE 48 57 26 31 1028.6 - 0.0
21/06:30pm 15.3 6.5 9.4 68 3.0 NE 46 57 25 31 1028.6 - 0.0
21/06:00pm 15.4 7.0 9.6 68 3.0 NE 44 54 24 29 1028.7 1028.7 0.0
21/05:30pm 15.5 6.9 8.8 64 3.4 NE 44 54 24 29 1029.0 - 0.0
21/05:00pm 15.8 7.3 9.1 64 3.4 NNE 44 54 24 29 1029.2 - 0.0
21/04:30pm 16.1 7.3 8.1 59 4.0 NE 44 56 24 30 1029.0 - 0.0
21/04:00pm 16.2 7.5 8.3 59 4.0 NE 44 54 24 29 1029.1 - 0.0
21/03:30pm 16.4 7.3 8.5 59 4.0 NE 46 57 25 31 1029.4 - 0.0
21/03:00pm 16.4 7.6 8.0 57 4.2 NE 44 52 24 28 1029.7 1029.8 0.0
21/02:30pm 16.4 7.5 7.5 55 4.4 NE 44 54 24 29 1030.2 - 0.0
21/02:00pm 16.2 6.8 7.0 54 4.5 NE 46 54 25 29 1030.6 - 0.0
21/01:30pm 16.5 7.6 7.7 56 4.4 NE 44 54 24 29 1030.9 - 0.0
21/01:00pm 16.5 7.2 7.4 55 4.5 NE 46 54 25 29 1031.3 - 0.0
21/12:30pm 16.5 7.7 7.4 55 4.5 NE 43 50 23 27 1031.8 - 0.0
21/12:00pm 16.8 7.8 7.1 52 4.8 NE 44 54 24 29 1032.0 1032.1 0.0
21/11:30am 16.6 7.9 7.5 55 4.6 NE 43 50 23 27 1032.3 - 0.0
21/11:00am 16.4 7.8 6.5 52 4.8 NE 41 48 22 26 1032.5 - 0.0
21/10:30am 15.8 7.2 6.7 54 4.5 NE 41 46 22 25 1032.7 - 0.0
21/10:00am 16.0 7.9 6.8 54 4.5 NE 39 44 21 24 1033.0 - 0.0
21/09:30am 15.7 8.0 7.1 56 4.2 NE 37 43 20 23 1032.9 - 0.0
21/09:00am 15.7 8.6 5.6 51 4.8 NE 32 41 17 22 1032.8 1033.0 0.0
21/08:30am 15.0 7.6 5.2 52 4.6 NE 33 43 18 23 1032.7 - 0.0
21/08:00am 14.5 7.0 4.5 51 4.6 NNE 33 43 18 23 1032.6 - 0.0
21/07:30am 14.7 6.9 4.7 51 4.7 NE 35 44 19 24 1032.4 - 0.0
21/07:00am 14.4 8.1 5.7 56 4.1 NNE 28 35 15 19 1032.1 - 0.0
21/06:30am 14.4 8.3 4.9 53 4.4 NNE 26 32 14 17 1031.9 - 0.0
21/06:00am 14.5 7.8 5.8 56 4.1 NE 30 39 16 21 1031.7 1031.7 0.0
21/05:30am 14.3 8.0 7.3 63 3.4 NE 30 35 16 19 1031.7 - 0.0
21/05:00am 14.2 8.1 4.9 53 4.3 NNE 26 33 14 18 1031.6 - 0.0
21/04:30am 14.2 7.2 4.3 51 4.6 NNE 30 37 16 20 1031.7 - 0.0
21/04:00am 14.1 7.1 3.9 50 4.6 NE 30 35 16 19 1031.7 - 0.0
21/03:30am 14.1 7.3 3.3 48 4.9 NE 28 35 15 19 1031.9 - 0.0
21/03:00am 13.9 7.4 4.8 54 4.2 NE 28 32 15 17 1032.2 1032.3 0.0
21/02:30am 13.9 7.5 5.0 55 4.1 ENE 28 32 15 17 1032.4 - 0.0
21/02:00am 14.2 7.0 3.2 47 4.9 ENE 30 35 16 19 1032.7 - 0.0
21/01:30am 13.7 8.1 5.3 57 3.9 NE 24 30 13 16 1032.9 - 0.0
21/01:00am 14.4 8.3 4.9 53 4.4 ENE 26 33 14 18 1033.0 - 0.0
21/12:30am 14.1 8.3 4.5 52 4.4 ENE 24 28 13 15 1033.3 - 0.0
21/12:00am 14.0 8.4 5.2 55 4.1 ENE 24 26 13 14 1033.4 1033.5 0.0
 
Date/Time
EDT
Temp
°C
App
Temp
°C
Dew
Point
Rel
Hum
%
Delta-T
°C
Wind Press
QNH
hPa
Press
MSL
hPa
Rain
since 9 am
mm
Dir
 
Spd
km/h
Gust
km/h
Spd
kts
Gust
kts
20/11:30pm 14.2 7.7 4.9 53 4.3 ENE 28 32 15 17 1033.4 - 0.0
20/11:00pm 14.2 8.2 5.2 54 4.2 E 26 32 14 17 1033.4 - 0.0
20/10:30pm 14.3 8.1 6.1 58 3.9 ENE 28 32 15 17 1033.5 - 0.0
20/10:00pm 14.2 8.7 5.9 57 4.0 E 24 30 13 16 1033.6 - 0.0
20/09:30pm 14.2 8.9 6.9 61 3.5 E 24 30 13 16 1033.5 - 0.0
20/09:00pm 14.1 9.0 5.8 57 3.9 E 22 26 12 14 1033.5 1033.6 0.0
20/08:30pm 14.1 9.0 6.1 58 3.8 E 22 28 12 15 1033.3 - 0.0
20/08:00pm 14.2 8.4 6.4 59 3.8 E 26 30 14 16 1032.9 - 0.0
20/07:30pm 14.2 8.6 5.4 55 4.1 E 24 30 13 16 1032.7 - 0.0
20/07:00pm 14.3 9.4 5.0 53 4.3 E 20 28 11 15 1032.6 - 0.0
20/06:30pm 14.5 9.8 5.0 53 4.4 E 19 24 10 13 1032.5 - 0.0
20/06:00pm 14.7 10.3 5.0 52 4.5 ESE 17 22 9 12 1032.4 1032.5 0.0
20/05:30pm 14.9 10.1 4.7 50 4.8 ESE 19 24 10 13 1032.3 - 0.0
20/05:00pm 15.2 10.3 4.0 47 5.2 ESE 19 24 10 13 1032.1 - 0.0
20/04:30pm 15.6 10.7 4.9 49 5.0 ESE 20 26 11 14 1031.8 - 0.0
20/04:00pm 15.2 10.7 4.3 48 5.1 SE 17 22 9 12 1031.7 - 0.0
20/03:30pm 15.9 11.8 6.1 52 4.7 SE 17 22 9 12 1031.8 - 0.0
20/03:00pm 15.9 11.7 5.8 51 4.8 SE 17 22 9 12 1031.9 1032.1 0.0
20/02:30pm 16.0 11.2 5.7 50 4.9 SSE 20 24 11 13 1032.0 - 0.0
20/02:00pm 16.2 11.7 6.3 52 4.8 SSE 19 28 10 15 1032.2 - 0.0
20/01:30pm 16.2 10.8 6.3 52 4.8 SSE 24 30 13 16 1032.3 - 0.0
20/01:00pm 16.2 10.9 7.0 54 4.5 SSE 24 32 13 17 1032.1 - 0.0
20/12:30pm 15.4 9.8 5.4 51 4.8 SSE 24 35 13 19 1032.5 - 0.0
20/12:00pm 15.2 8.8 5.4 52 4.6 SSE 28 33 15 18 1032.6 1032.8 0.0
20/11:30am 15.5 10.3 7.1 57 4.1 SSE 24 32 13 17 1032.7 - 0.0
20/11:00am 15.9 10.4 7.4 57 4.2 SSE 26 32 14 17 1032.5 - 0.0
20/10:30am 15.0 9.4 7.0 59 3.9 S 26 32 14 17 1032.4 - 0.0
20/10:00am 14.8 9.9 8.4 65 3.2 S 24 32 13 17 1032.1 - 0.0
20/09:30am 14.2 8.8 8.1 66 3.0 S 26 33 14 18 1031.8 - 0.0
20/09:00am 15.1 9.9 8.8 66 3.2 S 26 35 14 19 1031.2 1031.3 0.0
20/08:30am 13.8 9.1 9.2 74 2.3 S 24 32 13 17 1030.8 - 0.0
20/08:00am 14.1 7.5 10.0 76 2.1 S 35 41 19 22 1030.4 - 0.0
20/07:30am 14.2 7.4 9.3 72 2.5 S 35 43 19 23 1029.8 - 0.0
20/07:00am 13.6 6.3 10.1 79 1.8 S 39 46 21 25 1029.4 - 0.0
20/06:30am 13.4 6.2 10.5 82 1.5 S 39 50 21 27 1028.9 - 0.0
20/06:00am 13.5 5.3 10.4 81 1.6 S 44 50 24 27 1028.3 1028.2 0.0
20/05:30am 13.2 4.1 11.1 87 1.1 S 50 57 27 31 1027.8 - 0.0
20/05:10am 13.9 5.5 11.0 83 1.5 S 46 65 25 35 1027.6 - 0.0
20/05:00am 14.2 3.5 9.7 74 2.3 SW 56 63 30 34 1027.2 - 0.0
20/04:30am 14.0 3.3 9.5 74 2.3 SW 56 67 30 36 1026.7 - 0.0
20/04:00am 14.4 2.9 8.6 68 2.9 SW 59 70 32 38 1026.4 - 0.0
20/03:30am 13.8 2.2 9.7 76 2.1 SW 61 74 33 40 1026.1 - 0.0
20/03:00am 15.0 3.4 8.4 64 3.3 SW 59 76 32 41 1025.7 1025.6 0.0
20/02:53am 14.9 3.9 9.2 68 2.9 SW 57 76 31 41 1025.6 - 0.0
20/02:30am 14.8 4.5 9.5 70 2.7 WSW 54 65 29 35 1025.6 - 0.0
20/02:00am 14.9 4.6 11.1 78 2.0 WSW 56 70 30 38 1025.4 - 0.0
20/01:30am 15.1 5.5 10.7 75 2.3 WSW 52 65 28 35 1025.0 - 0.0
20/01:07am 15.1 6.6 10.7 75 2.3 WSW 46 65 25 35 1024.9 - 0.0
20/01:00am 15.3 7.0 11.4 77 2.1 WSW 46 61 25 33 1024.9 - 0.0
20/12:30am 15.6 7.9 11.5 76 2.2 WSW 43 57 23 31 1024.9 - 0.0
20/12:00am 15.8 8.1 11.5 75 2.3 SW 43 54 23 29 1024.1 1024.1 0.0
 
Date/Time
EDT
Temp
°C
App
Temp
°C
Dew
Point
Rel
Hum
%
Delta-T
°C
Wind Press
QNH
hPa
Press
MSL
hPa
Rain
since 9 am
mm
Dir
 
Spd
km/h
Gust
km/h
Spd
kts
Gust
kts
19/11:30pm 16.2 9.1 12.2 77 2.2 WSW 41 50 22 27 1023.8 - 0.0
19/11:00pm 16.6 8.9 11.6 72 2.7 WSW 43 56 23 30 1023.6 - 0.0
19/10:30pm 16.6 11.5 13.8 83 1.6 WSW 33 43 18 23 1023.1 - 0.0
19/10:00pm 17.1 8.7 13.5 79 2.0 SW 50 59 27 32 1021.8 - 0.0
19/09:36pm 19.9 14.6 13.2 65 3.8 SW 33 44 18 24 1021.2 - 0.0
19/09:30pm 22.6 20.0 10.6 46 6.6 NW 15 17 8 9 1020.2 - 0.0
19/09:00pm 21.1 18.3 12.6 58 4.8 NW 19 20 10 11 1019.9 1019.8 0.0
19/08:30pm 19.7 18.3 13.4 67 3.6 W 13 17 7 9 1019.7 - 0.0
19/08:00pm 18.7 18.6 13.8 73 2.8 N 7 11 4 6 1019.4 - 0.0
19/07:30pm 18.5 16.7 13.4 72 2.9 NNE 15 20 8 11 1018.8 - 0.0
19/07:00pm 17.9 15.5 13.9 77 2.3 NNE 19 20 10 11 1018.5 - 0.0
19/06:30pm 18.9 16.5 13.8 72 2.9 NNE 19 20 10 11 1018.1 - 0.0
19/06:00pm 18.5 15.9 13.8 74 2.7 NNE 20 24 11 13 1017.7 1017.7 0.0
19/05:30pm 18.5 14.8 13.8 74 2.7 NNE 26 30 14 16 1017.8 - 0.0
19/05:00pm 19.2 15.4 13.6 70 3.2 NNE 26 32 14 17 1017.8 - 0.0
19/04:30pm 19.7 15.9 13.6 68 3.5 NE 26 30 14 16 1017.9 - 0.0
19/04:00pm 18.9 15.6 14.0 73 2.8 NNE 24 28 13 15 1018.2 - 0.0
19/03:30pm 19.3 16.2 13.5 69 3.3 NE 22 26 12 14 1018.8 - 0.0
19/03:00pm 18.8 15.4 13.7 72 2.9 NE 24 28 13 15 1018.9 1018.9 0.0
19/02:30pm 19.4 15.7 14.0 71 3.1 NE 26 30 14 16 1019.3 - 0.0
19/02:00pm 19.8 16.6 14.3 70 3.2 NE 24 28 13 15 1019.9 - 0.0
19/01:30pm 19.6 16.9 14.6 73 2.9 NE 22 26 12 14 1020.3 - 0.0
19/01:00pm 19.8 17.6 14.8 73 2.9 NE 20 24 11 13 1020.4 - 0.0
19/12:30pm 20.2 18.8 14.5 69 3.3 NNE 15 20 8 11 1020.5 - 0.0
19/12:00pm 19.9 19.0 14.8 72 3.0 NE 13 19 7 10 1020.8 1020.8 0.0
19/11:30am 19.9 19.0 13.8 68 3.5 NE 11 15 6 8 1021.3 - 0.0
19/11:00am 19.8 19.3 13.7 68 3.5 NE 9 11 5 6 1021.5 - 0.0
19/10:30am 18.6 17.7 13.7 73 2.8 NNE 11 13 6 7 1021.7 - 0.0
19/10:00am 18.8 17.9 12.7 67 3.4 N 9 13 5 7 1021.9 - 0.0
19/09:30am 18.4 15.7 12.9 70 3.1 NNE 19 22 10 12 1021.7 - 0.0
19/09:00am 17.4 14.1 12.9 75 2.5 NNE 22 26 12 14 1021.7 1021.7 0.0
19/08:30am 16.6 13.2 12.4 76 2.3 NNE 22 28 12 15 1021.7 - 0.0
19/08:00am 16.6 13.4 12.0 74 2.5 NNE 20 22 11 12 1022.0 - 0.0
19/07:30am 15.2 11.8 11.3 77 2.1 N 20 24 11 13 1022.0 - 0.0
19/07:00am 14.6 10.8 11.0 79 1.9 N 22 28 12 15 1022.0 - 0.0
19/06:30am 14.7 11.1 10.5 76 2.2 N 20 24 11 13 1022.0 - 0.0
19/06:00am 15.0 10.5 10.0 72 2.6 N 24 28 13 15 1021.9 1021.9 0.0
19/05:30am 14.8 10.3 10.2 74 2.4 NNE 24 30 13 16 1021.9 - 0.0
19/05:00am 14.5 10.2 10.9 79 1.9 NNE 24 30 13 16 1022.2 - 0.0
19/04:30am 14.7 11.1 10.7 77 2.1 N 20 28 11 15 1022.5 - 0.0
19/04:00am 14.8 10.4 10.4 75 2.3 N 24 33 13 18 1022.7 - 0.0
19/03:30am 15.4 10.0 10.9 74 2.4 N 30 35 16 19 1022.9 - 0.0
19/03:00am 15.5 10.4 10.6 72 2.6 N 28 35 15 19 1023.1 1023.2 0.0
19/02:30am 15.5 9.6 10.6 72 2.6 N 32 41 17 22 1023.1 - 0.0
19/02:00am 15.8 9.7 10.3 70 2.9 NNE 33 41 18 22 1023.5 - 0.0
19/01:30am 15.8 9.3 10.5 71 2.8 NNE 35 44 19 24 1023.8 - 0.0
19/01:00am 15.8 9.4 10.7 71 2.7 N 35 44 19 24 1024.3 - 0.0
19/12:30am 15.7 10.0 11.2 74 2.4 NNE 32 41 17 22 1024.6 - 0.0
19/12:00am 15.7 10.8 11.4 75 2.3 NNE 28 39 15 21 1025.1 1025.2 0.0
 
Date/Time
EDT
Temp
°C
App
Temp
°C
Dew
Point
Rel
Hum
%
Delta-T
°C
Wind Press
QNH
hPa
Press
MSL
hPa
Rain
since 9 am
mm
Dir
 
Spd
km/h
Gust
km/h
Spd
kts
Gust
kts
18/11:30pm 15.6 10.0 11.5 76 2.2 NNE 32 39 17 21 1025.2 - 0.0
18/11:00pm 15.5 9.4 11.8 78 2.0 NNE 35 46 19 25 1024.8 - 0.0
18/10:30pm 15.5 9.4 11.8 78 2.0 NNE 35 43 19 23 1025.0 - 0.0
18/10:00pm 15.4 9.7 11.9 79 1.9 NNE 33 39 18 21 1025.2 - 0.0
18/09:30pm 15.4 9.7 11.7 78 2.0 NNE 33 39 18 21 1025.2 - 0.0
18/09:00pm 15.4 9.7 11.7 78 2.0 NNE 33 39 18 21 1025.4 1025.4 0.0
18/08:30pm 15.5 10.4 11.8 78 2.0 NNE 30 35 16 19 1025.5 - 0.0
18/08:00pm 15.7 10.6 12.0 78 2.0 NNE 30 35 16 19 1025.3 - 0.0

Other Formats:

Comma delimited format used in spreadsheet applications
http://www.bom.gov.au/fwo/IDN60801/IDN60801.94933.axf

JavaScript Object Notation format (JSON) in row-major order
http://www.bom.gov.au/fwo/IDN60801/IDN60801.94933.json